sensor_id;sensor_type;location;lat;lon;timestamp;pressure;altitude;pressure_sealevel;temperature;humidity
20156;BME280;10238;49.556;10.956;2023-02-08T00:01:23;100494.19;;;-6.19;100.00
20156;BME280;10238;49.556;10.956;2023-02-08T00:04:13;100499.38;;;-6.22;100.00
20156;BME280;10238;49.556;10.956;2023-02-08T00:07:04;100501.13;;;-6.24;100.00
20156;BME280;10238;49.556;10.956;2023-02-08T00:09:53;100483.84;;;-6.25;100.00
20156;BME280;10238;49.556;10.956;2023-02-08T00:12:46;100496.78;;;-6.25;100.00
20156;BME280;10238;49.556;10.956;2023-02-08T00:15:39;100495.94;;;-6.30;100.00
20156;BME280;10238;49.556;10.956;2023-02-08T00:18:30;100493.34;;;-6.33;100.00
20156;BME280;10238;49.556;10.956;2023-02-08T00:21:21;100495.94;;;-6.36;100.00
20156;BME280;10238;49.556;10.956;2023-02-08T00:24:11;100492.47;;;-6.38;100.00
20156;BME280;10238;49.556;10.956;2023-02-08T00:27:01;100489.88;;;-6.41;100.00
20156;BME280;10238;49.556;10.956;2023-02-08T00:29:53;100501.09;;;-6.45;100.00
20156;BME280;10238;49.556;10.956;2023-02-08T00:32:42;100495.03;;;-6.49;100.00
20156;BME280;10238;49.556;10.956;2023-02-08T00:35:32;100499.38;;;-6.52;100.00
20156;BME280;10238;49.556;10.956;2023-02-08T00:38:21;100494.19;;;-6.55;100.00
20156;BME280;10238;49.556;10.956;2023-02-08T00:41:12;100500.22;;;-6.56;100.00
20156;BME280;10238;49.556;10.956;2023-02-08T00:44:03;100503.66;;;-6.57;100.00
20156;BME280;10238;49.556;10.956;2023-02-08T00:46:55;100501.94;;;-6.61;100.00
20156;BME280;10238;49.556;10.956;2023-02-08T00:49:46;100507.97;;;-6.65;100.00
20156;BME280;10238;49.556;10.956;2023-02-08T00:52:37;100505.38;;;-6.67;100.00
20156;BME280;10238;49.556;10.956;2023-02-08T00:55:28;100501.03;;;-6.68;100.00
20156;BME280;10238;49.556;10.956;2023-02-08T00:58:19;100513.97;;;-6.68;100.00
20156;BME280;10238;49.556;10.956;2023-02-08T01:01:10;100500.19;;;-6.68;100.00
20156;BME280;10238;49.556;10.956;2023-02-08T01:04:02;100510.53;;;-6.71;100.00
20156;BME280;10238;49.556;10.956;2023-02-08T01:06:53;100512.22;;;-6.77;100.00
20156;BME280;10238;49.556;10.956;2023-02-08T01:09:45;100505.34;;;-6.81;100.00
20156;BME280;10238;49.556;10.956;2023-02-08T01:12:35;100508.78;;;-6.85;100.00
20156;BME280;10238;49.556;10.956;2023-02-08T01:15:26;100501.03;;;-6.85;100.00
20156;BME280;10238;49.556;10.956;2023-02-08T01:18:16;100501.88;;;-6.84;100.00
20156;BME280;10238;49.556;10.956;2023-02-08T01:21:10;100498.44;;;-6.89;100.00
20156;BME280;10238;49.556;10.956;2023-02-08T01:24:02;100496.72;;;-6.92;100.00
20156;BME280;10238;49.556;10.956;2023-02-08T01:26:52;100494.94;;;-6.94;100.00
20156;BME280;10238;49.556;10.956;2023-02-08T01:29:43;100501.00;;;-6.94;100.00
20156;BME280;10238;49.556;10.956;2023-02-08T01:32:34;100495.81;;;-6.97;100.00
20156;BME280;10238;49.556;10.956;2023-02-08T01:35:24;100498.38;;;-7.00;100.00
20156;BME280;10238;49.556;10.956;2023-02-08T01:38:16;100503.56;;;-7.00;100.00
20156;BME280;10238;49.556;10.956;2023-02-08T01:41:10;100503.56;;;-7.00;100.00
20156;BME280;10238;49.556;10.956;2023-02-08T01:47:30;100503.53;;;-7.04;100.00
20156;BME280;10238;49.556;10.956;2023-02-08T01:50:22;100498.34;;;-7.07;100.00
20156;BME280;10238;49.556;10.956;2023-02-08T01:53:18;100499.22;;;-7.13;100.00
20156;BME280;10238;49.556;10.956;2023-02-08T01:56:10;100501.78;;;-7.14;100.00
20156;BME280;10238;49.556;10.956;2023-02-08T01:59:04;100500.91;;;-7.16;100.00
20156;BME280;10238;49.556;10.956;2023-02-08T02:01:58;100494.88;;;-7.18;100.00
20156;BME280;10238;49.556;10.956;2023-02-08T02:04:50;100495.72;;;-7.21;100.00
20156;BME280;10238;49.556;10.956;2023-02-08T02:07:41;100502.63;;;-7.23;100.00
20156;BME280;10238;49.556;10.956;2023-02-08T02:10:36;100500.03;;;-7.24;100.00
20156;BME280;10238;49.556;10.956;2023-02-08T02:13:28;100487.97;;;-7.28;100.00
20156;BME280;10238;49.556;10.956;2023-02-08T02:16:20;100494.84;;;-7.29;100.00
20156;BME280;10238;49.556;10.956;2023-02-08T02:19:22;100487.94;;;-7.31;100.00
20156;BME280;10238;49.556;10.956;2023-02-08T02:22:30;100475.00;;;-7.36;100.00
20156;BME280;10238;49.556;10.956;2023-02-08T02:25:50;100476.75;;;-7.32;100.00
20156;BME280;10238;49.556;10.956;2023-02-08T02:28:58;100478.44;;;-7.37;100.00
20156;BME280;10238;49.556;10.956;2023-02-08T02:32:13;100475.81;;;-7.40;100.00
20156;BME280;10238;49.556;10.956;2023-02-08T02:35:15;100480.97;;;-7.41;100.00
20156;BME280;10238;49.556;10.956;2023-02-08T02:38:13;100476.66;;;-7.47;100.00
20156;BME280;10238;49.556;10.956;2023-02-08T02:41:12;100482.69;;;-7.48;100.00
20156;BME280;10238;49.556;10.956;2023-02-08T02:44:34;100483.56;;;-7.49;100.00
20156;BME280;10238;49.556;10.956;2023-02-08T02:47:31;100486.97;;;-7.50;100.00
20156;BME280;10238;49.556;10.956;2023-02-08T02:50:32;100478.38;;;-7.52;100.00
20156;BME280;10238;49.556;10.956;2023-02-08T02:53:33;100485.25;;;-7.54;100.00
20156;BME280;10238;49.556;10.956;2023-02-08T02:56:28;100490.38;;;-7.60;100.00
20156;BME280;10238;49.556;10.956;2023-02-08T02:59:20;100484.34;;;-7.60;100.00
20156;BME280;10238;49.556;10.956;2023-02-08T03:02:12;100484.34;;;-7.62;100.00
20156;BME280;10238;49.556;10.956;2023-02-08T03:05:05;100475.72;;;-7.64;100.00
20156;BME280;10238;49.556;10.956;2023-02-08T03:08:09;100473.13;;;-7.67;100.00
20156;BME280;10238;49.556;10.956;2023-02-08T03:11:14;100484.34;;;-7.63;100.00
20156;BME280;10238;49.556;10.956;2023-02-08T03:14:18;100465.38;;;-7.65;100.00
20156;BME280;10238;49.556;10.956;2023-02-08T03:17:33;100468.81;;;-7.69;100.00
20156;BME280;10238;49.556;10.956;2023-02-08T03:20:28;100469.66;;;-7.70;100.00
20156;BME280;10238;49.556;10.956;2023-02-08T03:23:25;100466.22;;;-7.74;100.00
20156;BME280;10238;49.556;10.956;2023-02-08T03:26:22;100473.06;;;-7.76;100.00
20156;BME280;10238;49.556;10.956;2023-02-08T03:29:24;100471.38;;;-7.74;100.00
20156;BME280;10238;49.556;10.956;2023-02-08T03:32:20;100473.94;;;-7.77;100.00
20156;BME280;10238;49.556;10.956;2023-02-08T03:35:18;100471.34;;;-7.80;100.00
20156;BME280;10238;49.556;10.956;2023-02-08T03:38:15;100469.59;;;-7.82;100.00
20156;BME280;10238;49.556;10.956;2023-02-08T03:41:09;100474.75;;;-7.84;100.00
20156;BME280;10238;49.556;10.956;2023-02-08T03:44:04;100479.91;;;-7.87;100.00
20156;BME280;10238;49.556;10.956;2023-02-08T03:47:00;100477.31;;;-7.87;100.00
20156;BME280;10238;49.556;10.956;2023-02-08T03:49:52;100475.56;;;-7.89;100.00
20156;BME280;10238;49.556;10.956;2023-02-08T03:52:45;100466.97;;;-7.91;100.00
20156;BME280;10238;49.556;10.956;2023-02-08T03:55:40;100465.22;;;-7.94;100.00
20156;BME280;10238;49.556;10.956;2023-02-08T03:58:37;100473.81;;;-7.96;100.00
20156;BME280;10238;49.556;10.956;2023-02-08T04:01:35;100479.81;;;-7.99;100.00
20156;BME280;10238;49.556;10.956;2023-02-08T04:04:34;100476.34;;;-8.01;100.00
20156;BME280;10238;49.556;10.956;2023-02-08T04:07:26;100476.31;;;-8.04;100.00
20156;BME280;10238;49.556;10.956;2023-02-08T04:10:17;100477.19;;;-8.05;100.00
20156;BME280;10238;49.556;10.956;2023-02-08T04:13:10;100480.59;;;-8.09;100.00
20156;BME280;10238;49.556;10.956;2023-02-08T04:16:01;100477.13;;;-8.11;100.00
20156;BME280;10238;49.556;10.956;2023-02-08T04:18:52;100471.94;;;-8.15;100.00
20156;BME280;10238;49.556;10.956;2023-02-08T04:21:43;100476.25;;;-8.19;100.00
20156;BME280;10238;49.556;10.956;2023-02-08T04:24:34;100474.50;;;-8.20;100.00
20156;BME280;10238;49.556;10.956;2023-02-08T04:27:25;100475.38;;;-8.18;100.00
20156;BME280;10238;49.556;10.956;2023-02-08T04:30:18;100483.09;;;-8.22;100.00
20156;BME280;10238;49.556;10.956;2023-02-08T04:33:12;100479.66;;;-8.24;100.00
20156;BME280;10238;49.556;10.956;2023-02-08T04:36:05;100478.81;;;-8.25;100.00
20156;BME280;10238;49.556;10.956;2023-02-08T04:38:56;100481.38;;;-8.25;100.00
20156;BME280;10238;49.556;10.956;2023-02-08T04:41:47;100474.47;;;-8.26;100.00
20156;BME280;10238;49.556;10.956;2023-02-08T04:44:38;100474.44;;;-8.29;100.00
20156;BME280;10238;49.556;10.956;2023-02-08T04:47:31;100474.44;;;-8.30;100.00
20156;BME280;10238;49.556;10.956;2023-02-08T04:50:22;100469.28;;;-8.32;100.00
20156;BME280;10238;49.556;10.956;2023-02-08T04:53:13;100472.69;;;-8.33;100.00
20156;BME280;10238;49.556;10.956;2023-02-08T04:56:04;100470.09;;;-8.36;100.00
20156;BME280;10238;49.556;10.956;2023-02-08T04:58:54;100470.06;;;-8.39;100.00
20156;BME280;10238;49.556;10.956;2023-02-08T05:01:45;100472.63;;;-8.40;100.00
20156;BME280;10238;49.556;10.956;2023-02-08T05:04:38;100482.09;;;-8.42;100.00
20156;BME280;10238;49.556;10.956;2023-02-08T05:07:29;100474.34;;;-8.44;100.00
20156;BME280;10238;49.556;10.956;2023-02-08T05:10:21;100479.50;;;-8.45;100.00
20156;BME280;10238;49.556;10.956;2023-02-08T05:13:12;100481.19;;;-8.46;100.00
20156;BME280;10238;49.556;10.956;2023-02-08T05:16:03;100476.00;;;-8.49;100.00
20156;BME280;10238;49.556;10.956;2023-02-08T05:18:54;100473.41;;;-8.50;100.00
20156;BME280;10238;49.556;10.956;2023-02-08T05:21:47;100479.41;;;-8.53;100.00
20156;BME280;10238;49.556;10.956;2023-02-08T05:24:38;100478.53;;;-8.55;100.00
20156;BME280;10238;49.556;10.956;2023-02-08T05:27:29;100471.63;;;-8.59;100.00
20156;BME280;10238;49.556;10.956;2023-02-08T05:30:20;100476.75;;;-8.62;100.00
20156;BME280;10238;49.556;10.956;2023-02-08T05:33:11;100473.28;;;-8.62;100.00
20156;BME280;10238;49.556;10.956;2023-02-08T05:36:02;100472.44;;;-8.66;100.00
20156;BME280;10238;49.556;10.956;2023-02-08T05:38:55;100476.72;;;-8.66;100.00
20156;BME280;10238;49.556;10.956;2023-02-08T05:41:46;100478.44;;;-8.68;100.00
20156;BME280;10238;49.556;10.956;2023-02-08T05:44:36;100480.13;;;-8.69;100.00
20156;BME280;10238;49.556;10.956;2023-02-08T05:47:27;100480.97;;;-8.71;100.00
20156;BME280;10238;49.556;10.956;2023-02-08T05:50:19;100476.63;;;-8.74;100.00
20156;BME280;10238;49.556;10.956;2023-02-08T05:53:10;100482.63;;;-8.75;100.00
20156;BME280;10238;49.556;10.956;2023-02-08T05:56:02;100486.91;;;-8.75;100.00
20156;BME280;10238;49.556;10.956;2023-02-08T05:58:52;100485.16;;;-8.79;100.00
20156;BME280;10238;49.556;10.956;2023-02-08T06:01:43;100482.56;;;-8.81;100.00
20156;BME280;10238;49.556;10.956;2023-02-08T06:04:34;100487.72;;;-8.81;100.00
20156;BME280;10238;49.556;10.956;2023-02-08T06:07:27;100496.28;;;-8.85;100.00
20156;BME280;10238;49.556;10.956;2023-02-08T06:10:18;100488.56;;;-8.85;100.00
20156;BME280;10238;49.556;10.956;2023-02-08T06:13:11;100489.41;;;-8.86;100.00
20156;BME280;10238;49.556;10.956;2023-02-08T06:16:02;100491.97;;;-8.87;100.00
20156;BME280;10238;49.556;10.956;2023-02-08T06:18:54;100487.66;;;-8.88;100.00
20156;BME280;10238;49.556;10.956;2023-02-08T06:21:45;100490.19;;;-8.91;100.00
20156;BME280;10238;49.556;10.956;2023-02-08T06:24:36;100497.91;;;-8.93;100.00
20156;BME280;10238;49.556;10.956;2023-02-08T06:27:27;100487.56;;;-8.96;100.00
20156;BME280;10238;49.556;10.956;2023-02-08T06:30:19;100491.03;;;-8.94;100.00
20156;BME280;10238;49.556;10.956;2023-02-08T06:33:10;100501.34;;;-8.94;100.00
20156;BME280;10238;49.556;10.956;2023-02-08T06:36:04;100501.31;;;-8.97;100.00
20156;BME280;10238;49.556;10.956;2023-02-08T06:38:55;100498.69;;;-9.00;100.00
20156;BME280;10238;49.556;10.956;2023-02-08T06:41:46;100504.72;;;-8.98;100.00
20156;BME280;10238;49.556;10.956;2023-02-08T06:44:37;100503.84;;;-9.00;100.00
20156;BME280;10238;49.556;10.956;2023-02-08T06:47:44;100497.78;;;-9.02;100.00
20156;BME280;10238;49.556;10.956;2023-02-08T06:50:35;100511.53;;;-9.03;100.00
20156;BME280;10238;49.556;10.956;2023-02-08T06:53:26;100502.09;;;-9.04;100.00
20156;BME280;10238;49.556;10.956;2023-02-08T06:56:17;100502.94;;;-9.05;100.00
20156;BME280;10238;49.556;10.956;2023-02-08T06:59:08;100504.63;;;-9.07;100.00
20156;BME280;10238;49.556;10.956;2023-02-08T07:01:58;100510.63;;;-9.08;100.00
20156;BME280;10238;49.556;10.956;2023-02-08T07:04:51;100513.22;;;-9.08;100.00
20156;BME280;10238;49.556;10.956;2023-02-08T07:07:43;100504.59;;;-9.08;100.00
20156;BME280;10238;49.556;10.956;2023-02-08T07:10:36;100502.00;;;-9.10;100.00
20156;BME280;10238;49.556;10.956;2023-02-08T07:13:28;100505.44;;;-9.11;100.00
20156;BME280;10238;49.556;10.956;2023-02-08T07:16:19;100509.69;;;-9.13;100.00
20156;BME280;10238;49.556;10.956;2023-02-08T07:19:10;100510.56;;;-9.13;100.00
20156;BME280;10238;49.556;10.956;2023-02-08T07:22:03;100516.56;;;-9.12;100.00
20156;BME280;10238;49.556;10.956;2023-02-08T07:24:56;100518.31;;;-9.11;100.00
20156;BME280;10238;49.556;10.956;2023-02-08T07:27:47;100521.81;;;-9.04;100.00
20156;BME280;10238;49.556;10.956;2023-02-08T07:30:39;100519.25;;;-9.03;100.00
20156;BME280;10238;49.556;10.956;2023-02-08T07:33:30;100523.59;;;-8.99;100.00
20156;BME280;10238;49.556;10.956;2023-02-08T07:36:21;100523.66;;;-8.93;100.00
20156;BME280;10238;49.556;10.956;2023-02-08T07:39:14;100525.44;;;-8.89;100.00
20156;BME280;10238;49.556;10.956;2023-02-08T07:42:05;100518.66;;;-8.81;100.00
20156;BME280;10238;49.556;10.956;2023-02-08T07:44:57;100516.22;;;-8.67;100.00
20156;BME280;10238;49.556;10.956;2023-02-08T07:47:48;100509.47;;;-8.53;100.00
20156;BME280;10238;49.556;10.956;2023-02-08T07:50:39;100515.63;;;-8.41;100.00
20156;BME280;10238;49.556;10.956;2023-02-08T07:53:31;100516.56;;;-8.31;100.00
20156;BME280;10238;49.556;10.956;2023-02-08T07:56:23;100523.47;;;-8.24;100.00
20156;BME280;10238;49.556;10.956;2023-02-08T07:59:14;100513.28;;;-8.08;100.00
20156;BME280;10238;49.556;10.956;2023-02-08T08:02:05;100511.69;;;-7.91;100.00
20156;BME280;10238;49.556;10.956;2023-02-08T08:04:56;100509.22;;;-7.73;100.00
20156;BME280;10238;49.556;10.956;2023-02-08T08:07:47;100510.03;;;-7.80;100.00
20156;BME280;10238;49.556;10.956;2023-02-08T08:10:38;100502.41;;;-7.59;100.00
20156;BME280;10238;49.556;10.956;2023-02-08T08:13:31;100503.47;;;-7.22;100.00
20156;BME280;10238;49.556;10.956;2023-02-08T08:16:22;100506.16;;;-6.97;100.00
20156;BME280;10238;49.556;10.956;2023-02-08T08:19:13;100503.63;;;-6.65;100.00
20156;BME280;10238;49.556;10.956;2023-02-08T08:22:04;100506.25;;;-6.57;100.00
20156;BME280;10238;49.556;10.956;2023-02-08T08:24:55;100505.41;;;-6.35;100.00
20156;BME280;10238;49.556;10.956;2023-02-08T08:27:48;100499.38;;;-6.28;100.00
20156;BME280;10238;49.556;10.956;2023-02-08T08:30:41;100501.13;;;-6.24;100.00
20156;BME280;10238;49.556;10.956;2023-02-08T08:33:31;100504.56;;;-6.10;100.00
20156;BME280;10238;49.556;10.956;2023-02-08T08:36:21;100514.91;;;-5.98;100.00
20156;BME280;10238;49.556;10.956;2023-02-08T08:39:11;100498.50;;;-5.90;100.00
20156;BME280;10238;49.556;10.956;2023-02-08T08:42:01;100495.88;;;-5.73;100.00
20156;BME280;10238;49.556;10.956;2023-02-08T08:44:51;100497.56;;;-5.54;100.00
20156;BME280;10238;49.556;10.956;2023-02-08T08:47:43;100497.50;;;-5.42;100.00
20156;BME280;10238;49.556;10.956;2023-02-08T08:50:33;100503.47;;;-5.15;100.00
20156;BME280;10238;49.556;10.956;2023-02-08T08:53:22;100499.13;;;-5.11;100.00
20156;BME280;10238;49.556;10.956;2023-02-08T08:56:13;100500.72;;;-4.83;100.00
20156;BME280;10238;49.556;10.956;2023-02-08T08:59:02;100481.59;;;-4.61;100.00
20156;BME280;10238;49.556;10.956;2023-02-08T09:01:54;100476.81;;;-4.05;100.00
20156;BME280;10238;49.556;10.956;2023-02-08T09:04:44;100468.97;;;-3.97;100.00
20156;BME280;10238;49.556;10.956;2023-02-08T09:07:35;100469.78;;;-3.91;100.00
20156;BME280;10238;49.556;10.956;2023-02-08T09:10:24;100463.63;;;-3.84;100.00
20156;BME280;10238;49.556;10.956;2023-02-08T09:13:14;100471.38;;;-3.79;100.00
20156;BME280;10238;49.556;10.956;2023-02-08T09:16:08;100471.41;;;-3.81;100.00
20156;BME280;10238;49.556;10.956;2023-02-08T09:18:59;100465.16;;;-3.62;100.00
20156;BME280;10238;49.556;10.956;2023-02-08T09:21:50;100462.97;;;-3.24;100.00
20156;BME280;10238;49.556;10.956;2023-02-08T09:24:40;100460.25;;;-3.12;100.00
20156;BME280;10238;49.556;10.956;2023-02-08T09:27:30;100457.28;;;-2.86;100.00
20156;BME280;10238;49.556;10.956;2023-02-08T09:30:19;100460.84;;;-2.92;100.00
20156;BME280;10238;49.556;10.956;2023-02-08T09:33:09;100467.47;;;-2.70;100.00
20156;BME280;10238;49.556;10.956;2023-02-08T09:35:59;100455.09;;;-2.56;100.00
20156;BME280;10238;49.556;10.956;2023-02-08T09:38:53;100461.19;;;-2.57;100.00
20156;BME280;10238;49.556;10.956;2023-02-08T09:42:12;100449.06;;;-2.58;100.00
20156;BME280;10238;49.556;10.956;2023-02-08T09:45:30;100453.25;;;-2.48;100.00
20156;BME280;10238;49.556;10.956;2023-02-08T09:48:37;100446.03;;;-2.31;100.00
20156;BME280;10238;49.556;10.956;2023-02-08T09:51:32;100442.19;;;-2.08;100.00
20156;BME280;10238;49.556;10.956;2023-02-08T09:54:29;100440.19;;;-1.94;100.00
20156;BME280;10238;49.556;10.956;2023-02-08T09:57:23;100427.81;;;-1.80;100.00
20156;BME280;10238;49.556;10.956;2023-02-08T10:00:18;100422.72;;;-1.42;100.00
20156;BME280;10238;49.556;10.956;2023-02-08T10:03:30;100430.44;;;-1.36;100.00
20156;BME280;10238;49.556;10.956;2023-02-08T10:06:22;100430.13;;;-1.23;100.00
20156;BME280;10238;49.556;10.956;2023-02-08T10:09:13;100420.38;;;-1.13;100.00
20156;BME280;10238;49.556;10.956;2023-02-08T10:12:13;100413.38;;;-1.11;100.00
20156;BME280;10238;49.556;10.956;2023-02-08T10:15:14;100411.31;;;-0.59;100.00
20156;BME280;10238;49.556;10.956;2023-02-08T10:18:19;100412.81;;;-0.49;100.00
20156;BME280;10238;49.556;10.956;2023-02-08T10:21:33;100404.09;;;-0.48;100.00
20156;BME280;10238;49.556;10.956;2023-02-08T10:24:40;100398.16;;;-0.55;100.00
20156;BME280;10238;49.556;10.956;2023-02-08T10:27:42;100397.47;;;-0.28;100.00
20156;BME280;10238;49.556;10.956;2023-02-08T10:30:40;100398.13;;;-0.18;100.00
20156;BME280;10238;49.556;10.956;2023-02-08T10:33:36;100383.38;;;0.13;100.00
20156;BME280;10238;49.556;10.956;2023-02-08T10:36:31;100384.59;;;0.32;100.00
20156;BME280;10238;49.556;10.956;2023-02-08T10:39:26;100372.81;;;0.48;100.00
20156;BME280;10238;49.556;10.956;2023-02-08T10:42:19;100369.91;;;0.57;100.00
20156;BME280;10238;49.556;10.956;2023-02-08T10:45:21;100368.84;;;0.93;100.00
20156;BME280;10238;49.556;10.956;2023-02-08T10:48:17;100361.69;;;0.98;100.00
20156;BME280;10238;49.556;10.956;2023-02-08T10:51:13;100354.19;;;1.15;100.00
20156;BME280;10238;49.556;10.956;2023-02-08T10:54:05;100354.88;;;1.48;100.00
20156;BME280;10238;49.556;10.956;2023-02-08T10:56:57;100348.22;;;1.38;100.00
20156;BME280;10238;49.556;10.956;2023-02-08T10:59:52;100342.84;;;1.42;100.00
20156;BME280;10238;49.556;10.956;2023-02-08T11:02:45;100332.81;;;1.55;100.00
20156;BME280;10238;49.556;10.956;2023-02-08T11:05:38;100332.34;;;1.94;100.00
20156;BME280;10238;49.556;10.956;2023-02-08T11:08:29;100326.63;;;2.06;100.00
20156;BME280;10238;49.556;10.956;2023-02-08T11:11:19;100323.84;;;2.11;100.00
20156;BME280;10238;49.556;10.956;2023-02-08T11:14:13;100326.00;;;2.24;100.00
20156;BME280;10238;49.556;10.956;2023-02-08T11:17:11;100318.47;;;2.39;100.00
20156;BME280;10238;49.556;10.956;2023-02-08T11:20:25;100312.22;;;2.43;100.00
20156;BME280;10238;49.556;10.956;2023-02-08T11:23:25;100310.84;;;2.56;100.00
20156;BME280;10238;49.556;10.956;2023-02-08T11:26:20;100302.94;;;2.79;100.00
20156;BME280;10238;49.556;10.956;2023-02-08T11:29:17;100297.59;;;2.82;100.00
20156;BME280;10238;49.556;10.956;2023-02-08T11:32:18;100300.41;;;2.99;100.00
20156;BME280;10238;49.556;10.956;2023-02-08T11:35:19;100290.03;;;3.17;100.00
20156;BME280;10238;49.556;10.956;2023-02-08T11:38:20;100289.69;;;3.25;100.00
20156;BME280;10238;49.556;10.956;2023-02-08T11:41:17;100281.31;;;3.37;99.87
20156;BME280;10238;49.556;10.956;2023-02-08T11:44:11;100278.44;;;3.43;97.33
20156;BME280;10238;49.556;10.956;2023-02-08T11:47:08;100280.19;;;3.64;98.76
20156;BME280;10238;49.556;10.956;2023-02-08T11:50:01;100271.38;;;3.85;100.00
20156;BME280;10238;49.556;10.956;2023-02-08T11:52:55;100272.59;;;3.96;100.00
20156;BME280;10238;49.556;10.956;2023-02-08T11:55:44;100276.28;;;4.51;100.00
20156;BME280;10238;49.556;10.956;2023-02-08T11:58:32;100274.22;;;4.76;100.00
20156;BME280;10238;49.556;10.956;2023-02-08T12:01:23;100278.31;;;5.00;100.00
20156;BME280;10238;49.556;10.956;2023-02-08T12:04:13;100263.16;;;5.05;100.00
20156;BME280;10238;49.556;10.956;2023-02-08T12:07:15;100255.34;;;5.21;100.00
20156;BME280;10238;49.556;10.956;2023-02-08T12:13:35;100242.09;;;5.73;100.00
20156;BME280;10238;49.556;10.956;2023-02-08T12:16:38;100233.44;;;5.71;100.00
20156;BME280;10238;49.556;10.956;2023-02-08T12:20:01;100221.94;;;5.89;100.00
20156;BME280;10238;49.556;10.956;2023-02-08T12:23:00;100213.16;;;5.72;100.00
20156;BME280;10238;49.556;10.956;2023-02-08T12:25:59;100209.84;;;5.51;96.03
20156;BME280;10238;49.556;10.956;2023-02-08T12:29:12;100206.25;;;5.69;100.00
20156;BME280;10238;49.556;10.956;2023-02-08T12:32:21;100201.78;;;5.71;97.48
20156;BME280;10238;49.556;10.956;2023-02-08T12:35:31;100191.31;;;6.02;100.00
20156;BME280;10238;49.556;10.956;2023-02-08T12:38:53;100181.13;;;5.62;91.83
20156;BME280;10238;49.556;10.956;2023-02-08T12:45:49;100171.28;;;6.46;100.00
20156;BME280;10238;49.556;10.956;2023-02-08T12:48:55;100168.91;;;6.89;100.00
20156;BME280;10238;49.556;10.956;2023-02-08T12:51:52;100166.44;;;6.86;100.00
20156;BME280;10238;49.556;10.956;2023-02-08T12:54:45;100166.69;;;6.81;100.00
20156;BME280;10238;49.556;10.956;2023-02-08T12:57:38;100167.31;;;7.30;100.00
20156;BME280;10238;49.556;10.956;2023-02-08T13:00:28;100157.78;;;7.71;100.00
20156;BME280;10238;49.556;10.956;2023-02-08T13:03:34;100170.09;;;8.14;100.00
20156;BME280;10238;49.556;10.956;2023-02-08T13:06:27;100157.06;;;8.25;100.00
20156;BME280;10238;49.556;10.956;2023-02-08T13:09:37;100159.91;;;8.36;100.00
20156;BME280;10238;49.556;10.956;2023-02-08T13:12:31;100146.31;;;7.56;100.00
20156;BME280;10238;49.556;10.956;2023-02-08T13:15:28;100145.31;;;7.87;100.00
20156;BME280;10238;49.556;10.956;2023-02-08T13:18:23;100141.56;;;7.91;100.00
20156;BME280;10238;49.556;10.956;2023-02-08T13:21:16;100137.19;;;7.76;100.00
20156;BME280;10238;49.556;10.956;2023-02-08T13:24:21;100140.00;;;8.15;100.00
20156;BME280;10238;49.556;10.956;2023-02-08T13:27:19;100136.06;;;8.08;100.00
20156;BME280;10238;49.556;10.956;2023-02-08T13:30:18;100144.16;;;8.47;100.00
20156;BME280;10238;49.556;10.956;2023-02-08T13:33:16;100144.53;;;8.55;100.00
20156;BME280;10238;49.556;10.956;2023-02-08T13:36:18;100126.72;;;8.57;100.00
20156;BME280;10238;49.556;10.956;2023-02-08T13:39:25;100130.69;;;8.64;100.00
20156;BME280;10238;49.556;10.956;2023-02-08T13:42:26;100131.31;;;8.67;100.00
20156;BME280;10238;49.556;10.956;2023-02-08T13:45:27;100121.72;;;8.79;100.00
20156;BME280;10238;49.556;10.956;2023-02-08T13:48:18;100122.94;;;8.61;100.00
20156;BME280;10238;49.556;10.956;2023-02-08T13:59:03;100123.72;;;8.35;100.00
20156;BME280;10238;49.556;10.956;2023-02-08T14:02:29;100137.13;;;8.60;100.00
20156;BME280;10238;49.556;10.956;2023-02-08T14:05:45;100135.38;;;8.46;100.00
20156;BME280;10238;49.556;10.956;2023-02-08T14:08:40;100141.31;;;8.50;100.00
20156;BME280;10238;49.556;10.956;2023-02-08T14:11:40;100137.41;;;8.29;100.00
20156;BME280;10238;49.556;10.956;2023-02-08T14:14:34;100130.91;;;8.19;100.00
20156;BME280;10238;49.556;10.956;2023-02-08T14:17:28;100132.94;;;8.29;100.00
20156;BME280;10238;49.556;10.956;2023-02-08T14:20:21;100121.91;;;8.49;100.00
20156;BME280;10238;49.556;10.956;2023-02-08T14:23:25;100128.63;;;8.55;100.00
20156;BME280;10238;49.556;10.956;2023-02-08T14:26:19;100108.25;;;7.73;98.21
20156;BME280;10238;49.556;10.956;2023-02-08T14:29:23;100091.97;;;7.93;100.00
20156;BME280;10238;49.556;10.956;2023-02-08T14:32:21;100101.91;;;6.58;90.26
20156;BME280;10238;49.556;10.956;2023-02-08T14:35:21;100101.50;;;6.50;83.34
20156;BME280;10238;49.556;10.956;2023-02-08T14:41:51;100101.56;;;6.64;93.66
20156;BME280;10238;49.556;10.956;2023-02-08T14:44:59;100097.97;;;6.65;90.89
20156;BME280;10238;49.556;10.956;2023-02-08T14:47:59;100102.59;;;6.92;100.00
20156;BME280;10238;49.556;10.956;2023-02-08T14:51:05;100096.41;;;6.93;100.00
20156;BME280;10238;49.556;10.956;2023-02-08T14:54:15;100088.69;;;7.04;100.00
20156;BME280;10238;49.556;10.956;2023-02-08T14:57:19;100078.13;;;6.58;93.84
20156;BME280;10238;49.556;10.956;2023-02-08T15:00:20;100091.16;;;6.61;100.00
20156;BME280;10238;49.556;10.956;2023-02-08T15:03:15;100082.34;;;6.00;90.48
20156;BME280;10238;49.556;10.956;2023-02-08T15:06:47;100081.31;;;5.70;90.58
20156;BME280;10238;49.556;10.956;2023-02-08T15:09:43;100079.38;;;5.74;94.21
20156;BME280;10238;49.556;10.956;2023-02-08T15:12:38;100078.41;;;5.27;88.38
20156;BME280;10238;49.556;10.956;2023-02-08T15:15:32;100087.47;;;5.21;88.83
20156;BME280;10238;49.556;10.956;2023-02-08T15:18:24;100084.97;;;5.35;94.54